createdAt,value
2017-10-11T00:03:15.916Z,37.03
2017-10-11T00:08:17.840Z,34.40
2017-10-11T00:13:19.769Z,36.27
2017-10-11T00:18:21.686Z,35.13
2017-10-11T00:23:24.332Z,33.70
2017-10-11T00:28:26.277Z,32.20
2017-10-11T00:33:28.207Z,32.40
2017-10-11T00:38:30.187Z,32.07
2017-10-11T00:43:33.695Z,30.00
2017-10-11T00:48:36.396Z,28.60
2017-10-11T00:53:38.392Z,28.53
2017-10-11T00:58:41.124Z,26.90
2017-10-11T01:03:43.073Z,25.10
2017-10-11T01:08:45.861Z,25.30
2017-10-11T01:13:47.774Z,23.00
2017-10-11T01:18:49.713Z,24.00
2017-10-11T01:23:51.705Z,23.50
2017-10-11T01:28:53.719Z,23.43
2017-10-11T01:33:55.852Z,24.50
2017-10-11T01:38:58.647Z,24.20
2017-10-11T01:44:00.683Z,23.43
2017-10-11T01:49:03.456Z,21.90
2017-10-11T01:54:05.432Z,20.70
2017-10-11T01:59:07.396Z,21.90
2017-10-11T02:04:09.375Z,20.73
2017-10-11T02:09:11.314Z,21.80
2017-10-11T02:14:14.016Z,21.80
2017-10-11T02:19:15.921Z,22.63
2017-10-11T02:24:17.864Z,21.80
2017-10-11T02:29:20.564Z,23.43
2017-10-11T02:34:22.568Z,22.70
2017-10-11T02:39:24.454Z,22.83
2017-10-11T02:44:26.375Z,23.53
2017-10-11T02:49:28.269Z,24.20
2017-10-11T02:54:30.180Z,25.00
2017-10-11T02:59:32.104Z,25.93
2017-10-11T03:04:34.735Z,26.10
2017-10-11T03:09:36.658Z,24.60
2017-10-11T03:14:38.567Z,24.77
2017-10-11T03:19:40.458Z,24.43
2017-10-11T03:24:42.395Z,21.50
2017-10-11T03:29:46.422Z,21.10
2017-10-11T03:34:49.251Z,19.73
2017-10-11T03:39:51.219Z,19.33
2017-10-11T03:44:53.164Z,20.90
2017-10-11T03:49:55.087Z,18.83
2017-10-11T03:54:57.007Z,20.10
2017-10-11T03:59:58.903Z,20.03
2017-10-11T04:05:00.844Z,20.17
2017-10-11T04:10:02.787Z,21.13
2017-10-11T04:15:04.731Z,22.77
2017-10-11T04:20:07.423Z,21.33
2017-10-11T04:25:09.348Z,20.00
2017-10-11T04:30:11.298Z,19.33
2017-10-11T04:35:13.388Z,19.10
2017-10-11T04:40:15.328Z,18.20
2017-10-11T04:45:17.307Z,18.83
2017-10-11T04:50:19.244Z,17.90
2017-10-11T04:55:21.215Z,16.97
2017-10-11T05:00:23.204Z,17.67
2017-10-11T05:05:25.381Z,17.50
2017-10-11T05:10:28.052Z,18.90
2017-10-11T05:15:30.108Z,19.37
2017-10-11T05:20:32.040Z,20.33
2017-10-11T05:25:34.031Z,21.13
2017-10-11T05:30:36.679Z,21.57
2017-10-11T05:35:38.645Z,20.90
2017-10-11T05:40:43.608Z,22.50
2017-10-11T05:45:46.201Z,21.30
2017-10-11T05:50:48.123Z,21.93
2017-10-11T05:55:50.037Z,21.77
2017-10-11T06:00:51.971Z,21.83
2017-10-11T06:05:53.952Z,23.10
2017-10-11T06:10:55.995Z,21.40
2017-10-11T06:15:57.967Z,22.27
2017-10-11T06:21:00.642Z,22.63
2017-10-11T06:26:02.667Z,24.27
2017-10-11T06:31:04.597Z,23.60
2017-10-11T06:36:06.546Z,22.23
2017-10-11T06:41:08.451Z,22.70
2017-10-11T06:46:10.372Z,21.10
2017-10-11T06:51:12.270Z,21.17
2017-10-11T06:56:14.233Z,21.27
2017-10-11T07:01:16.199Z,20.57
2017-10-11T07:06:18.133Z,19.70
2017-10-11T07:11:20.087Z,18.37
2017-10-11T07:16:22.034Z,19.67
2017-10-11T07:21:24.766Z,18.00
2017-10-11T07:26:27.461Z,17.87
2017-10-11T07:31:29.369Z,16.20
2017-10-11T07:36:31.322Z,14.90
2017-10-11T07:41:33.225Z,13.90
2017-10-11T07:46:35.143Z,15.27
2017-10-11T07:51:37.113Z,14.70
2017-10-11T07:56:39.831Z,13.90
2017-10-11T08:01:42.515Z,14.23
2017-10-11T08:06:44.483Z,13.77
2017-10-11T08:11:46.427Z,13.97
2017-10-11T08:16:48.362Z,14.63
2017-10-11T08:21:51.010Z,14.40
2017-10-11T08:26:52.945Z,15.33
2017-10-11T08:31:54.878Z,15.60
2017-10-11T08:36:56.851Z,18.77
2017-10-11T08:41:58.792Z,17.53
2017-10-11T08:47:01.563Z,19.40
2017-10-11T08:52:03.577Z,18.90
2017-10-11T08:57:05.499Z,18.23
2017-10-11T09:02:07.418Z,18.00
2017-10-11T09:07:10.102Z,18.10
2017-10-11T09:12:12.039Z,16.70
2017-10-11T09:17:13.992Z,16.23
2017-10-11T09:22:17.019Z,15.30
2017-10-11T09:27:18.984Z,13.83
2017-10-11T09:32:21.708Z,12.60
2017-10-11T09:37:24.451Z,12.60
2017-10-11T09:42:26.781Z,10.77
2017-10-11T09:47:29.025Z,10.07
2017-10-11T09:52:31.065Z,10.03
2017-10-11T09:57:33.844Z,9.00
2017-10-11T10:02:35.811Z,8.50
2017-10-11T10:07:37.722Z,8.70
2017-10-11T10:12:39.886Z,7.23
2017-10-11T10:17:41.804Z,7.30
2017-10-11T10:22:44.483Z,6.97
2017-10-11T10:27:46.400Z,6.90
2017-10-11T10:32:48.423Z,6.67
2017-10-11T10:37:51.086Z,6.23
2017-10-11T10:42:53.034Z,6.30
2017-10-11T10:47:55.021Z,5.70
2017-10-11T10:52:56.983Z,4.80
2017-10-11T10:57:58.899Z,5.73
2017-10-11T11:03:07.436Z,4.87
2017-10-11T11:08:10.915Z,4.93
2017-10-11T11:13:12.907Z,4.47
2017-10-11T11:18:16.371Z,3.83
2017-10-11T11:23:19.806Z,3.37
2017-10-11T11:28:31.281Z,3.27
2017-10-11T11:33:33.804Z,3.80
2017-10-11T11:38:36.474Z,3.63
2017-10-11T11:43:38.397Z,3.47
2017-10-11T11:48:44.937Z,3.40
2017-10-11T11:53:57.166Z,3.67
2017-10-11T11:58:59.942Z,4.23
2017-10-11T12:04:01.997Z,3.53
2017-10-11T12:09:04.726Z,3.83
2017-10-11T12:14:07.406Z,3.70
2017-10-11T12:19:09.372Z,4.20
2017-10-11T12:24:12.046Z,5.30
2017-10-11T12:29:13.978Z,4.33
2017-10-11T12:34:15.880Z,4.47
2017-10-11T12:39:18.536Z,4.57
2017-10-11T12:44:20.436Z,4.43
2017-10-11T12:49:22.329Z,4.10
2017-10-11T12:54:24.240Z,3.40
2017-10-11T12:59:26.246Z,4.87
2017-10-11T13:04:28.137Z,3.63
2017-10-11T13:09:30.041Z,4.50
2017-10-11T13:14:31.934Z,4.97
2017-10-11T13:19:34.575Z,6.17
2017-10-11T13:24:36.460Z,9.73
2017-10-11T13:29:39.100Z,7.20
2017-10-11T13:34:41.008Z,8.10
2017-10-11T13:39:42.915Z,8.17
2017-10-11T13:44:44.793Z,7.50
2017-10-11T13:49:46.683Z,7.60
2017-10-11T13:54:48.575Z,7.10
2017-10-11T13:59:51.413Z,6.90
2017-10-11T14:04:53.423Z,7.13
2017-10-11T14:09:55.388Z,7.27
2017-10-11T14:14:57.385Z,7.03
2017-10-11T14:19:59.364Z,7.40
2017-10-11T14:25:01.534Z,6.70
2017-10-11T14:30:03.595Z,6.37
2017-10-11T14:35:05.585Z,5.50
2017-10-11T14:40:08.391Z,5.90
2017-10-11T14:45:10.477Z,6.63
2017-10-11T14:50:13.166Z,5.90
2017-10-11T14:55:15.431Z,6.07
2017-10-11T15:00:17.890Z,5.80
2017-10-11T15:05:20.241Z,6.13
2017-10-11T15:10:25.124Z,5.87
2017-10-11T15:15:28.457Z,6.00
2017-10-11T15:20:32.009Z,4.63
2017-10-11T15:25:34.242Z,4.10
2017-10-11T15:30:37.090Z,4.03
2017-10-11T15:35:39.285Z,3.83
2017-10-11T15:40:41.504Z,3.73
2017-10-11T15:45:43.717Z,3.53
2017-10-11T15:50:45.869Z,3.47
2017-10-11T15:55:48.251Z,3.63
2017-10-11T16:00:52.912Z,3.90
2017-10-11T16:05:55.720Z,4.20
2017-10-11T16:10:57.650Z,3.97
2017-10-11T16:15:59.574Z,5.17
2017-10-11T16:21:01.698Z,4.60
2017-10-11T16:26:03.862Z,4.60
2017-10-11T16:31:06.289Z,4.70
2017-10-11T16:36:08.245Z,4.50
2017-10-11T16:41:11.344Z,4.50
2017-10-11T16:46:13.257Z,4.60
2017-10-11T16:51:18.554Z,4.93
2017-10-11T16:56:21.512Z,5.43
2017-10-11T17:01:23.704Z,5.10
2017-10-11T17:06:27.072Z,4.80
2017-10-11T17:11:35.421Z,5.30
2017-10-11T17:16:40.191Z,5.93
2017-10-11T17:21:42.457Z,5.17
2017-10-11T17:26:46.035Z,6.10
2017-10-11T17:31:50.304Z,5.70
2017-10-11T17:36:58.444Z,5.90
2017-10-11T17:42:01.339Z,5.80
2017-10-11T17:47:04.972Z,6.20
2017-10-11T17:52:07.939Z,7.20
2017-10-11T17:57:14.263Z,6.33
2017-10-11T18:02:16.375Z,6.53
2017-10-11T18:07:19.799Z,7.80
2017-10-11T18:12:23.202Z,7.10
2017-10-11T18:17:26.204Z,6.57
2017-10-11T18:22:32.464Z,7.07
2017-10-11T18:27:39.046Z,6.80
2017-10-11T18:32:44.568Z,6.07
2017-10-11T18:37:53.349Z,7.60
2017-10-11T18:42:56.044Z,7.10
2017-10-11T18:47:57.995Z,7.20
2017-10-11T18:52:59.948Z,7.40
2017-10-11T18:58:02.718Z,6.80
2017-10-11T19:03:04.636Z,7.20
2017-10-11T19:08:06.629Z,6.70
2017-10-11T19:13:08.566Z,7.30
2017-10-11T19:18:11.264Z,6.87
2017-10-11T19:23:13.343Z,7.00
2017-10-11T19:28:15.346Z,7.83
2017-10-11T19:33:17.255Z,7.40
2017-10-11T19:38:19.247Z,7.03
2017-10-11T19:43:21.194Z,6.57
2017-10-11T19:48:23.328Z,6.90
2017-10-11T19:53:26.108Z,6.37
2017-10-11T19:58:28.093Z,5.57
2017-10-11T20:03:30.310Z,5.30
2017-10-11T20:08:35.486Z,5.53
2017-10-11T20:13:40.513Z,4.80
2017-10-11T20:18:43.629Z,5.17
2017-10-11T20:23:45.783Z,4.70
2017-10-11T20:28:47.734Z,5.03
2017-10-11T20:33:49.630Z,4.83
2017-10-11T20:38:51.849Z,4.60
2017-10-11T20:43:53.772Z,4.63
2017-10-11T20:48:55.788Z,4.50
2017-10-11T20:53:57.844Z,4.90
2017-10-11T20:58:59.776Z,5.10
2017-10-11T21:04:01.716Z,5.50
2017-10-11T21:09:03.713Z,4.10
2017-10-11T21:14:06.350Z,4.63
2017-10-11T21:19:08.265Z,4.93
2017-10-11T21:24:10.222Z,4.87
2017-10-11T21:29:12.143Z,4.53
2017-10-11T21:34:14.046Z,4.93
2017-10-11T21:39:16.840Z,4.80
2017-10-11T21:44:18.899Z,5.20
2017-10-11T21:49:20.898Z,5.20
2017-10-11T21:54:22.831Z,5.00
2017-10-11T21:59:24.763Z,4.90
2017-10-11T22:04:26.659Z,6.20
2017-10-11T22:09:30.344Z,5.17
2017-10-11T22:14:33.447Z,4.40
2017-10-11T22:19:35.334Z,5.67
2017-10-11T22:24:37.303Z,5.40
2017-10-11T22:29:39.215Z,5.93
2017-10-11T22:34:41.201Z,4.20
2017-10-11T22:39:43.164Z,5.33
2017-10-11T22:44:45.055Z,4.43
2017-10-11T22:49:47.037Z,5.03
2017-10-11T22:54:48.955Z,3.70
2017-10-11T22:59:50.919Z,4.50
2017-10-11T23:04:53.051Z,4.60
2017-10-11T23:09:54.975Z,4.37
2017-10-11T23:14:56.912Z,3.90
2017-10-11T23:19:59.651Z,4.00
2017-10-11T23:25:01.575Z,3.40
2017-10-11T23:30:03.492Z,3.67
2017-10-11T23:35:05.400Z,3.60
2017-10-11T23:40:07.286Z,3.30
2017-10-11T23:45:09.235Z,4.07
2017-10-11T23:50:11.200Z,3.73
2017-10-11T23:55:13.162Z,3.00
